Time;durP1;ratioP1;P1;durP2;ratioP2;P2;SDS_P1;SDS_P2;PMS_P1;PMS_P2;Temp;Humidity;BMP_temperature;BMP_pressure;BME280_temperature;BME280_humidity;BME280_pressure;Samples;Min_cycle;Max_cycle;Signal;HPM_P1;HPM_P2
2022/06/23 00:02:06;;;;;;;13.82;3.08;;;;;;;23.55;62.50;98357.72;4956403;28;20085;-48
2022/06/23 00:04:36;;;;;;;13.90;3.55;;;;;;;23.47;62.96;98353.03;4956370;28;20027;-48
2022/06/23 00:07:07;;;;;;;18.38;4.35;;;;;;;23.41;62.90;98356.88;4956236;28;20037;-48
2022/06/23 00:09:45;;;;;;;14.50;3.20;;;;;;;23.22;63.73;98357.69;4956335;28;20102;-49
2022/06/23 00:12:19;;;;;;;17.35;3.78;;;;;;;23.09;64.71;98351.19;4956195;28;20027;-49
2022/06/23 00:15:02;;;;;;;18.20;3.00;;;;;;;23.07;64.91;98345.31;4954889;29;20023;-46
2022/06/23 00:17:36;;;;;;;11.57;3.30;;;;;;;22.96;64.99;98332.34;4954779;29;20462;-46
2022/06/23 00:20:05;;;;;;;16.85;3.25;;;;;;;22.79;64.84;98339.00;4956086;28;20030;-48
2022/06/23 00:22:32;;;;;;;13.77;4.70;;;;;;;22.70;65.08;98330.84;4956053;28;20401;-48
2022/06/23 00:25:04;;;;;;;15.35;2.83;;;;;;;22.60;65.75;98330.19;4954609;29;20059;-48
2022/06/23 00:27:34;;;;;;;17.75;3.53;;;;;;;22.49;65.71;98330.31;4954434;29;20055;-48
2022/06/23 00:30:21;;;;;;;13.10;2.92;;;;;;;22.44;65.83;98338.41;4954659;29;20035;-48
2022/06/23 00:32:47;;;;;;;20.23;3.40;;;;;;;22.43;66.44;98328.00;4954585;29;20034;-48
2022/06/23 00:35:16;;;;;;;18.83;3.50;;;;;;;22.43;66.08;98325.31;4970544;28;20039;-48
2022/06/23 00:37:51;;;;;;;20.05;3.85;;;;;;;22.42;66.80;98318.38;4955961;28;20086;-48
2022/06/23 00:40:23;;;;;;;19.55;3.75;;;;;;;22.70;66.70;98330.06;4954448;29;20544;-47
2022/06/23 00:43:02;;;;;;;18.25;3.88;;;;;;;23.15;64.90;98325.13;4954454;29;20043;-48
2022/06/23 00:45:35;;;;;;;16.80;3.33;;;;;;;23.30;64.61;98321.41;4955619;28;20031;-48
2022/06/23 00:48:16;;;;;;;13.48;3.35;;;;;;;23.34;64.40;98322.41;4955623;28;20031;-48
2022/06/23 00:51:02;;;;;;;20.75;4.85;;;;;;;23.55;64.31;98317.53;4955569;28;20023;-48
2022/06/23 00:53:36;;;;;;;22.13;4.43;;;;;;;24.00;63.53;98317.78;4954419;29;20034;-48
2022/06/23 00:56:24;;;;;;;27.38;5.13;;;;;;;24.32;62.34;98318.78;4955462;28;20027;-49
2022/06/23 00:58:56;;;;;;;24.45;3.72;;;;;;;24.51;61.10;98310.66;4954117;29;20031;-48
2022/06/23 01:01:52;;;;;;;19.90;4.38;;;;;;;24.88;60.59;98322.19;4953872;28;20038;-48
2022/06/23 01:04:36;;;;;;;;;;;;;;;25.21;59.90;98313.88;4954484;29;20031;-48
2022/06/23 01:07:27;;;;;;;25.65;3.92;;;;;;;25.33;58.61;98308.78;4969881;28;19914;-48
2022/06/23 01:10:16;;;;;;;12.63;3.03;;;;;;;25.27;57.85;98305.44;4955243;28;20114;-48
2022/06/23 01:12:52;;;;;;;29.17;5.03;;;;;;;25.37;58.40;98303.59;4955123;28;20027;-49
2022/06/23 01:15:27;;;;;;;19.95;3.40;;;;;;;25.47;57.57;98304.16;4955056;28;20050;-48
2022/06/23 01:17:55;;;;;;;;;;;;;;;25.22;57.78;98315.53;4954200;29;20386;-48
2022/06/23 01:20:30;;;;;;;14.10;2.95;;;;;;;24.67;59.06;98313.78;4954908;28;20340;-49
2022/06/23 01:23:03;;;;;;;25.48;5.07;;;;;;;24.40;60.74;98319.97;4953716;29;20035;-48
2022/06/23 01:25:53;;;;;;;20.95;4.00;;;;;;;24.53;60.24;98319.19;4953263;29;20110;-48
2022/06/23 01:28:25;;;;;;;10.85;3.97;;;;;;;24.39;59.96;98323.72;4954850;28;20051;-49
2022/06/23 01:31:12;;;;;;;11.60;2.50;;;;;;;24.13;60.09;98329.63;4954814;28;20042;-48
2022/06/23 01:33:53;;;;;;;18.42;3.88;;;;;;;24.10;61.29;98343.63;4953808;29;20434;-49
2022/06/23 01:36:41;;;;;;;21.42;3.45;;;;;;;24.47;60.63;98352.56;4953385;29;20434;-48
2022/06/23 01:39:25;;;;;;;19.35;3.25;;;;;;;24.74;59.43;98332.16;4954595;28;20508;-49
2022/06/23 01:42:00;;;;;;;18.55;3.10;;;;;;;24.62;59.57;98327.31;4954626;28;20031;-49
2022/06/23 01:44:51;;;;;;;14.00;3.88;;;;;;;24.39;59.65;98329.09;4953274;29;20027;-48
2022/06/23 01:47:35;;;;;;;20.98;3.88;;;;;;;24.16;59.88;98338.97;4954417;28;20447;-48
2022/06/23 01:50:13;;;;;;;12.65;2.95;;;;;;;24.18;60.08;98339.47;4953102;29;20062;-48
2022/06/23 01:52:40;;;;;;;19.15;3.72;;;;;;;24.13;59.90;98343.03;4954423;28;20038;-48
2022/06/23 01:55:24;;;;;;;18.05;3.70;;;;;;;24.08;60.29;98335.06;4954313;28;20023;-49
2022/06/23 01:58:02;;;;;;;32.05;9.55;;;;;;;23.97;60.87;98342.53;4954406;28;20544;-49
2022/06/23 02:00:28;;;;;;;25.95;3.92;;;;;;;23.88;60.68;98363.06;4954264;28;20069;-48
2022/06/23 02:03:18;;;;;;;28.80;4.22;;;;;;;24.01;60.80;98373.00;4954268;28;20023;-48
2022/06/23 02:05:49;;;;;;;15.50;3.08;;;;;;;24.17;60.42;98362.81;4954151;29;20023;-48
2022/06/23 02:08:37;;;;;;;18.42;3.80;;;;;;;24.37;60.25;98340.16;4954159;28;20113;-48
2022/06/23 02:11:37;;;;;;;31.52;4.85;;;;;;;24.60;59.78;98338.34;4954106;28;20019;-48
2022/06/23 02:14:30;;;;;;;20.92;3.25;;;;;;;24.46;59.00;98341.00;4953449;28;20038;-48
2022/06/23 02:17:09;;;;;;;41.28;6.47;;;;;;;24.26;60.23;98336.06;4952698;29;20085;-48
2022/06/23 02:19:46;;;;;;;29.60;4.25;;;;;;;24.37;60.28;98324.06;4954025;28;20031;-48
2022/06/23 02:22:25;;;;;;;28.42;4.75;;;;;;;24.66;59.83;98331.78;4952705;29;20039;-48
2022/06/23 02:25:17;;;;;;;24.90;5.60;;;;;;;24.81;59.00;98336.03;4953994;28;20027;-48
2022/06/23 02:28:12;;;;;;;18.45;3.75;;;;;;;24.74;59.23;98346.38;4953729;28;20462;-49
2022/06/23 02:31:03;;;;;;;23.67;4.18;;;;;;;24.42;63.82;98348.06;4968692;28;20031;-48
2022/06/23 02:33:38;;;;;;;23.48;3.85;;;;;;;23.61;67.43;98353.84;4952549;29;20408;-48
2022/06/23 02:36:37;;;;;;;23.30;3.90;;;;;;;23.17;70.91;98359.66;4953875;28;20114;-48
2022/06/23 02:39:35;;;;;;;28.35;19.60;;;;;;;22.93;71.42;98360.50;4952536;29;20065;-48
2022/06/23 02:42:14;;;;;;;19.25;4.05;;;;;;;22.58;72.77;98356.41;4952054;29;20040;-49
2022/06/23 02:44:50;;;;;;;20.00;3.67;;;;;;;22.37;73.66;98350.53;4954792;28;20066;-48
2022/06/23 02:47:41;;;;;;;19.02;4.40;;;;;;;22.03;73.80;98344.16;4952395;29;20031;-48
2022/06/23 02:50:42;;;;;;;30.90;5.13;;;;;;;22.07;75.26;98347.09;4953671;28;20103;-48
2022/06/23 02:53:40;;;;;;;23.85;5.10;;;;;;;22.11;74.86;98353.44;4952402;29;20505;-48
2022/06/23 02:56:24;;;;;;;47.67;25.33;;;;;;;22.32;75.10;98354.06;4930176;29;20036;-48
2022/06/23 02:59:14;;;;;;;16.13;4.03;;;;;;;22.66;75.14;98348.56;4953579;29;20543;-48
2022/06/23 03:01:52;;;;;;;31.27;4.60;;;;;;;23.16;73.76;98342.81;4953545;28;20055;-48
2022/06/23 03:04:23;;;;;;;20.25;4.22;;;;;;;23.23;72.93;98345.88;4952335;29;20526;-48
2022/06/23 03:06:49;;;;;;;17.20;3.53;;;;;;;23.13;72.30;98344.16;4952245;29;20054;-48
2022/06/23 03:09:26;;;;;;;20.33;3.80;;;;;;;22.99;72.10;98340.59;4953510;28;20059;-48
2022/06/23 03:11:58;;;;;;;20.63;4.35;;;;;;;22.63;71.30;98337.63;4952251;29;20031;-48
2022/06/23 03:15:01;;;;;;;15.82;3.58;;;;;;;22.13;72.62;98338.75;4968242;28;20106;-48
2022/06/23 03:17:46;;;;;;;16.95;3.63;;;;;;;21.73;72.60;98335.41;4952191;29;20023;-48
2022/06/23 03:20:39;;;;;;;20.00;3.63;;;;;;;21.59;73.79;98347.00;4952171;29;20035;-48
2022/06/23 03:23:13;;;;;;;16.73;3.40;;;;;;;21.58;73.41;98342.75;4953448;29;20397;-48
2022/06/23 03:26:00;;;;;;;18.60;4.10;;;;;;;21.69;74.09;98331.72;4953566;28;20090;-48
2022/06/23 03:28:44;;;;;;;21.40;3.80;;;;;;;22.04;73.12;98340.44;4957041;29;20027;-48
2022/06/23 03:31:21;;;;;;;15.82;3.80;;;;;;;21.88;71.95;98331.78;4956961;28;20035;-48
2022/06/23 03:34:14;;;;;;;23.15;4.05;;;;;;;21.61;71.76;98326.97;4956948;28;20035;-48
2022/06/23 03:36:44;;;;;;;18.58;4.70;;;;;;;21.53;72.87;98335.56;4955656;29;20402;-48
2022/06/23 03:42:14;;;;;;;15.18;3.97;;;;;;;21.49;72.46;98330.03;4956942;29;20046;-48
2022/06/23 03:45:04;;;;;;;28.17;4.32;;;;;;;21.45;73.07;98329.00;4956810;28;20029;-48
2022/06/23 03:47:53;;;;;;;13.48;3.20;;;;;;;21.72;72.70;98325.78;4954988;29;20045;-48
2022/06/23 03:50:31;;;;;;;17.17;3.20;;;;;;;22.03;73.10;98332.69;4955389;29;20110;-48
2022/06/23 03:53:07;;;;;;;16.88;4.68;;;;;;;22.43;71.82;98326.09;4956659;28;20374;-48
2022/06/23 03:55:45;;;;;;;17.33;3.80;;;;;;;22.58;70.57;98324.31;4956558;28;20024;-48
2022/06/23 03:58:33;;;;;;;24.25;6.18;;;;;;;22.33;70.00;98329.72;4955223;29;20042;-48
2022/06/23 04:01:03;;;;;;;21.58;6.25;;;;;;;22.09;70.34;98329.69;4955124;29;20072;-48
2022/06/23 04:03:49;;;;;;;17.60;5.22;;;;;;;22.04;71.16;98328.97;4956400;28;20493;-48
2022/06/23 04:06:38;;;;;;;17.27;4.40;;;;;;;22.04;71.29;98329.75;4955174;29;20031;-48
2022/06/23 04:09:29;;;;;;;15.02;4.75;;;;;;;21.97;70.92;98323.94;4956310;28;20047;-48
2022/06/23 04:12:02;;;;;;;20.35;4.80;;;;;;;21.85;71.98;98327.03;4948345;28;20394;-48
2022/06/23 04:14:33;;;;;;;17.33;4.20;;;;;;;22.04;71.98;98324.41;4956207;28;20511;-47
2022/06/23 04:17:09;;;;;;;17.52;4.10;;;;;;;22.22;70.88;98330.09;4956135;29;20077;-47
2022/06/23 04:19:36;;;;;;;18.92;4.05;;;;;;;22.48;71.29;98334.06;4956169;28;20437;-48
2022/06/23 04:22:10;;;;;;;15.05;4.18;;;;;;;22.62;69.05;98328.03;4956024;28;20028;-48
2022/06/23 04:24:42;;;;;;;16.92;3.97;;;;;;;22.53;68.43;98312.59;4954796;29;20023;-48
2022/06/23 04:27:20;;;;;;;17.73;4.63;;;;;;;22.33;68.02;98316.34;4954433;29;20086;-47
2022/06/23 04:29:52;;;;;;;15.27;3.67;;;;;;;22.07;68.89;98317.69;4955945;29;20054;-47
2022/06/23 04:32:32;;;;;;;18.48;4.47;;;;;;;22.02;70.20;98315.88;4954613;29;20038;-47
2022/06/23 04:35:04;;;;;;;21.80;4.38;;;;;;;22.15;69.58;98317.06;4955889;28;20110;-48
2022/06/23 04:37:42;;;;;;;16.20;3.80;;;;;;;22.24;69.03;98320.72;4955134;28;20078;-48
2022/06/23 04:40:20;;;;;;;20.25;3.45;;;;;;;22.39;68.33;98319.75;4970491;28;20055;-48
2022/06/23 04:42:57;;;;;;;18.38;3.88;;;;;;;22.54;67.51;98324.13;4954451;29;20038;-48
2022/06/23 04:45:29;;;;;;;19.85;4.28;;;;;;;22.59;66.89;98321.34;4955618;28;20047;-48
2022/06/23 04:47:58;;;;;;;29.88;5.05;;;;;;;22.66;66.74;98321.00;4955667;28;20503;-48
2022/06/23 04:50:39;;;;;;;14.75;4.15;;;;;;;22.67;66.81;98318.03;4955631;28;20020;-48
2022/06/23 04:53:06;;;;;;;20.98;3.95;;;;;;;22.57;66.70;98315.50;4954246;29;20039;-48
2022/06/23 04:55:34;;;;;;;23.60;4.10;;;;;;;22.88;66.69;98309.75;4954143;29;20027;-48
2022/06/23 04:58:12;;;;;;;12.48;3.25;;;;;;;22.97;66.03;98307.19;4954401;29;20066;-48
2022/06/23 05:00:40;;;;;;;14.00;3.47;;;;;;;22.72;65.63;98307.28;4955455;28;20056;-48
2022/06/23 05:03:30;;;;;;;19.38;3.97;;;;;;;22.61;66.22;98313.06;4953984;29;20027;-48
2022/06/23 05:06:11;;;;;;;15.80;4.53;;;;;;;22.97;65.14;98307.19;4955268;28;20482;-48
2022/06/23 05:08:41;;;;;;;15.55;3.78;;;;;;;23.02;64.46;98299.09;4955239;28;20110;-47
2022/06/23 05:11:30;;;;;;;19.83;5.95;;;;;;;22.87;64.76;98303.56;4969944;28;20071;-48
2022/06/23 05:14:02;;;;;;;11.52;2.65;;;;;;;22.76;64.57;98304.81;4953824;29;20394;-48
2022/06/23 05:16:34;;;;;;;19.23;2.92;;;;;;;22.68;64.75;98300.13;4955098;28;20031;-48
2022/06/23 05:19:16;;;;;;;21.35;3.75;;;;;;;22.97;64.45;98299.16;4953819;29;20110;-48
2022/06/23 05:21:56;;;;;;;11.05;2.55;;;;;;;23.72;60.98;98300.88;4955010;28;20402;-48
2022/06/23 05:24:27;;;;;;;14.20;2.65;;;;;;;23.62;60.95;98301.84;4954963;28;20126;-48
2022/06/23 05:26:58;;;;;;;17.45;3.75;;;;;;;23.54;61.25;98297.16;4953267;29;20047;-48
2022/06/23 05:29:42;;;;;;;12.90;3.65;;;;;;;23.76;61.57;98298.41;4953834;29;20458;-48
2022/06/23 05:32:25;;;;;;;10.85;2.70;;;;;;;24.60;58.92;98300.00;4953525;29;20031;-48
2022/06/23 05:34:58;;;;;;;8.23;2.60;;;;;;;24.98;57.58;98297.00;4954826;28;20031;-46
2022/06/23 05:37:44;;;;;;;19.60;3.50;;;;;;;25.69;55.58;98300.59;4953469;29;20118;-46
2022/06/23 05:40:13;;;;;;;15.90;2.90;;;;;;;26.56;53.34;98291.22;4954673;28;20128;-46
2022/06/23 05:42:45;;;;;;;11.75;2.97;;;;;;;27.27;50.10;98297.13;4953276;29;20037;-47
2022/06/23 05:45:23;;;;;;;14.57;2.65;;;;;;;27.85;48.99;98288.69;4953231;29;20031;-48
2022/06/23 05:47:49;;;;;;;13.48;2.47;;;;;;;28.31;47.26;98287.03;4954267;28;20037;-46
2022/06/23 05:50:33;;;;;;;16.58;3.35;;;;;;;28.78;46.60;98286.88;4952495;29;20031;-46
2022/06/23 05:53:11;;;;;;;15.67;3.07;;;;;;;29.22;45.61;98284.59;4954744;28;20031;-46
2022/06/23 05:56:02;;;;;;;16.67;2.80;;;;;;;29.57;44.72;98286.16;4969168;28;20028;-46
2022/06/23 05:58:35;;;;;;;18.25;2.95;;;;;;;29.92;43.27;98286.53;4953185;29;20039;-45
2022/06/23 06:01:49;;;;;;;21.20;3.85;;;;;;;30.24;42.30;98275.91;4954220;28;20038;-45
2022/06/23 06:04:43;;;;;;;22.00;3.92;;;;;;;30.31;42.74;98284.28;4949987;29;20047;-48
2022/06/23 06:07:14;;;;;;;11.77;3.10;;;;;;;30.72;41.21;98287.78;4954101;28;20438;-47
2022/06/23 06:09:40;;;;;;;11.80;2.63;;;;;;;31.09;40.50;98284.16;4952891;29;20039;-48
2022/06/23 06:12:15;;;;;;;22.90;4.20;;;;;;;30.81;40.51;98283.03;4954045;28;20024;-48
2022/06/23 06:14:50;;;;;;;14.82;3.50;;;;;;;30.13;41.81;98282.94;4954098;28;20472;-48
2022/06/23 06:17:23;;;;;;;21.88;3.33;;;;;;;29.84;42.75;98280.13;4954088;28;20046;-47
2022/06/23 06:19:52;;;;;;;13.85;2.90;;;;;;;29.99;42.38;98286.75;4954053;28;20035;-50
2022/06/23 06:22:46;;;;;;;16.40;3.45;;;;;;;30.85;41.11;98275.78;4952634;29;20023;-50
2022/06/23 06:25:32;;;;;;;14.15;3.30;;;;;;;30.98;40.52;98273.03;4948343;29;20394;-47
2022/06/23 06:28:11;;;;;;;20.27;3.60;;;;;;;31.05;40.60;98274.03;4934781;29;20051;-47
2022/06/23 06:30:42;;;;;;;17.00;4.00;;;;;;;31.20;39.96;98269.75;4934763;29;20059;-45
2022/06/23 06:33:44;;;;;;;16.80;3.38;;;;;;;31.45;40.08;98275.06;4934767;29;20032;-45
2022/06/23 06:36:38;;;;;;;25.77;4.15;;;;;;;32.48;38.36;98275.91;4934726;29;20024;-45
2022/06/23 06:39:10;;;;;;;16.23;3.17;;;;;;;32.92;37.03;98264.78;4917797;29;20127;-45
2022/06/23 06:41:39;;;;;;;10.35;2.55;;;;;;;33.12;35.88;98260.16;4917483;29;20038;-46
2022/06/23 06:44:08;;;;;;;12.25;2.78;;;;;;;33.13;35.49;98264.44;4934605;29;20043;-45
2022/06/23 06:46:39;;;;;;;14.63;3.25;;;;;;;32.88;35.78;98268.56;4934514;29;20016;-46
2022/06/23 06:49:08;;;;;;;15.85;3.97;;;;;;;32.44;36.65;98264.97;4934528;29;20490;-46
2022/06/23 06:51:34;;;;;;;15.98;3.40;;;;;;;32.29;36.92;98265.03;4934536;29;20031;-46
2022/06/23 06:54:05;;;;;;;11.52;2.72;;;;;;;31.96;36.92;98268.94;4917404;29;20446;-45
2022/06/23 06:56:45;;;;;;;17.17;4.05;;;;;;;32.36;36.46;98267.91;4934555;29;20035;-45
2022/06/23 06:59:28;;;;;;;20.00;3.55;;;;;;;32.37;35.66;98259.38;4934575;29;20040;-46
2022/06/23 07:02:00;;;;;;;19.60;4.25;;;;;;;32.25;36.44;98262.22;4938375;29;20028;-46
2022/06/23 07:04:38;;;;;;;15.73;4.43;;;;;;;32.74;35.97;98260.91;4938372;29;20033;-46
2022/06/23 07:07:09;;;;;;;18.23;3.88;;;;;;;32.49;35.50;98252.25;4921005;29;20023;-46
2022/06/23 07:09:49;;;;;;;17.90;2.83;;;;;;;31.88;36.77;98243.53;4938287;29;20497;-46
2022/06/23 07:12:25;;;;;;;14.82;4.15;;;;;;;31.78;36.84;98227.81;4921009;29;20032;-48
2022/06/23 07:15:05;;;;;;;17.63;3.78;;;;;;;31.53;36.92;98236.16;4920970;29;20036;-47
2022/06/23 07:17:49;;;;;;;18.13;4.18;;;;;;;31.00;37.55;98238.25;4920988;29;20023;-48
2022/06/23 07:20:23;;;;;;;17.40;4.47;;;;;;;30.53;38.59;98245.09;4938092;29;20266;-47
2022/06/23 07:22:57;;;;;;;17.70;3.35;;;;;;;29.80;39.96;98245.94;4920913;29;20031;-47
2022/06/23 07:25:33;;;;;;;18.65;3.38;;;;;;;29.13;41.73;98248.75;4937939;29;20031;-47
2022/06/23 07:28:23;;;;;;;16.75;3.60;;;;;;;29.23;41.78;98255.66;4937917;29;20067;-46
2022/06/23 07:30:54;;;;;;;19.65;3.80;;;;;;;29.20;42.20;98240.91;4920726;29;20424;-46
2022/06/23 07:33:46;;;;;;;12.23;3.47;;;;;;;29.11;41.95;98234.78;4937839;29;20039;-47
2022/06/23 07:36:33;;;;;;;16.45;3.85;;;;;;;28.46;43.52;98237.09;4910588;29;20050;-50
2022/06/23 07:39:08;;;;;;;21.02;3.95;;;;;;;28.27;44.50;98232.13;4920572;29;20070;-48
2022/06/23 07:41:47;;;;;;;17.45;4.25;;;;;;;29.39;42.00;98240.38;4937642;29;20035;-48
2022/06/23 07:44:24;;;;;;;16.63;3.38;;;;;;;30.23;40.56;98249.97;4937647;29;20023;-48
2022/06/23 07:46:50;;;;;;;19.15;3.33;;;;;;;31.41;37.93;98245.13;4937462;29;20490;-47
2022/06/23 07:49:17;;;;;;;14.50;2.53;;;;;;;31.87;36.69;98241.97;4937504;29;20363;-47
2022/06/23 07:51:44;;;;;;;18.75;3.75;;;;;;;31.34;37.05;98241.44;4937383;29;20031;-46
2022/06/23 07:54:16;;;;;;;15.63;3.88;;;;;;;31.00;37.88;98243.66;4937454;29;20119;-48
2022/06/23 07:56:43;;;;;;;12.75;2.90;;;;;;;31.50;37.17;98239.56;4937387;29;20043;-48
2022/06/23 07:59:14;;;;;;;16.67;3.72;;;;;;;33.01;34.61;98226.50;4920235;29;20034;-48
2022/06/23 08:01:55;;;;;;;15.45;3.08;;;;;;;34.17;33.01;98219.84;4937230;29;20031;-48
2022/06/23 08:04:54;;;;;;;18.67;3.70;;;;;;;35.01;32.95;98217.72;4937565;29;20156;-48
2022/06/23 08:07:20;;;;;;;18.95;4.95;;;;;;;36.84;29.56;98207.16;4920013;29;20032;-49
2022/06/23 08:09:52;;;;;;;31.75;5.53;;;;;;;38.09;27.64;98206.38;4937127;29;20028;-49
2022/06/23 08:18:43;;;;;;;14.15;4.03;;;;;;;39.99;24.83;98209.06;4937292;29;20050;-51
2022/06/23 08:21:19;;;;;;;18.20;4.60;;;;;;;39.33;25.19;98208.81;4936928;29;20024;-51
2022/06/23 08:24:16;;;;;;;16.13;3.55;;;;;;;39.03;24.76;98209.47;4919816;29;20513;-51
2022/06/23 08:26:59;;;;;;;12.80;3.40;;;;;;;38.65;25.66;98201.03;4945582;29;20134;-49
2022/06/23 08:29:39;;;;;;;19.60;4.30;;;;;;;38.50;26.07;98196.81;4956011;28;20032;-48
2022/06/23 08:32:05;;;;;;;18.60;4.85;;;;;;;39.54;25.03;98191.41;4955943;28;20481;-48
2022/06/23 08:34:34;;;;;;;17.17;3.88;;;;;;;39.46;24.56;98189.13;4955865;28;20110;-51
2022/06/23 08:37:08;;;;;;;19.65;5.60;;;;;;;39.13;25.59;98192.13;4955847;28;20066;-49
2022/06/23 08:39:46;;;;;;;18.45;4.75;;;;;;;39.54;24.82;98179.63;4970603;28;20128;-49
2022/06/23 08:42:13;;;;;;;24.20;4.45;;;;;;;39.10;29.11;98187.47;4954470;29;20032;-51
2022/06/23 08:44:48;;;;;;;28.00;6.30;;;;;;;39.34;29.59;98174.72;4955584;28;20028;-49
2022/06/23 08:47:14;;;;;;;24.20;5.97;;;;;;;39.29;27.17;98177.09;4954311;29;20035;-51
2022/06/23 08:50:01;;;;;;;21.98;4.70;;;;;;;38.96;27.16;98168.34;4955502;28;20031;-51
2022/06/23 08:52:49;;;;;;;22.55;5.20;;;;;;;39.18;25.36;98166.22;4954296;29;20035;-50
2022/06/23 08:55:20;;;;;;;24.83;4.95;;;;;;;39.52;25.36;98160.84;4954169;29;20118;-51
2022/06/23 08:57:55;;;;;;;26.95;6.45;;;;;;;39.69;24.04;98155.56;4954157;29;20122;-50
2022/06/23 09:00:45;;;;;;;33.15;5.95;;;;;;;39.23;24.94;98159.50;4955452;28;20031;-51
2022/06/23 09:03:32;;;;;;;26.67;7.07;;;;;;;39.54;24.58;98161.22;4954128;29;20035;-51
2022/06/23 09:06:31;;;;;;;37.47;8.77;;;;;;;40.06;24.65;98165.75;4954032;29;20031;-49
2022/06/23 09:09:15;;;;;;;37.45;7.50;;;;;;;41.29;23.12;98173.88;4955303;28;20031;-50
2022/06/23 09:11:47;;;;;;;26.77;5.65;;;;;;;40.23;23.63;98172.22;4955202;28;20023;-48
2022/06/23 09:14:31;;;;;;;23.70;5.90;;;;;;;40.03;24.09;98165.81;4953923;29;20123;-48
2022/06/23 09:17:19;;;;;;;24.60;5.70;;;;;;;40.07;24.29;98161.81;4953805;29;20019;-49
2022/06/23 09:20:06;;;;;;;28.45;6.65;;;;;;;40.67;26.36;98164.19;4955081;28;20027;-49
2022/06/23 09:22:50;;;;;;;29.15;5.60;;;;;;;39.48;24.82;98168.34;4953783;28;20031;-49
2022/06/23 09:25:21;;;;;;;32.38;6.32;;;;;;;38.27;27.25;98161.66;4954827;28;20497;-51
2022/06/23 09:28:24;;;;;;;27.67;6.00;;;;;;;38.76;26.55;98166.13;4953468;29;20155;-51
2022/06/23 09:31:14;;;;;;;27.83;6.93;;;;;;;37.67;27.87;98168.88;4954930;28;20049;-49
2022/06/23 09:34:02;;;;;;;29.70;7.45;;;;;;;36.10;29.45;98170.94;4954880;28;20158;-48
2022/06/23 09:36:43;;;;;;;53.85;18.33;;;;;;;35.79;30.06;98161.41;4953478;29;20039;-48
2022/06/23 09:39:26;;;;;;;31.67;6.70;;;;;;;36.51;29.56;98157.06;4954743;29;20501;-49
2022/06/23 09:42:23;;;;;;;28.25;6.20;;;;;;;39.24;25.87;98152.81;4954654;28;20409;-51
2022/06/23 09:45:07;;;;;;;32.88;6.13;;;;;;;41.35;23.76;98146.59;4953301;29;20043;-50
2022/06/23 09:47:45;;;;;;;44.95;8.77;;;;;;;41.98;22.54;98148.59;4953229;29;20090;-49
2022/06/23 09:50:40;;;;;;;29.67;5.97;;;;;;;41.02;23.13;98142.84;4954451;29;20405;-51
2022/06/23 09:53:14;;;;;;;28.17;6.20;;;;;;;39.59;24.75;98135.25;4953232;29;20469;-49
2022/06/23 09:55:53;;;;;;;;;;;;;;;38.48;25.98;98138.84;4954830;28;20030;-49
2022/06/23 09:58:55;;;;;;;19.25;4.68;;;;;;;37.37;27.38;98137.25;4954426;28;20001;-50
2022/06/23 10:01:48;;;;;;;34.03;6.43;;;;;;;37.67;27.35;98141.50;4953027;29;20070;-47
2022/06/23 10:04:41;;;;;;;29.08;6.90;;;;;;;37.89;27.23;98134.00;4953098;29;20060;-47
2022/06/23 10:07:12;;;;;;;33.10;6.35;;;;;;;39.03;26.00;98132.63;4954183;29;20069;-48
2022/06/23 10:09:47;;;;;;;29.42;6.50;;;;;;;40.43;24.36;98128.38;4954430;29;20106;-48
2022/06/23 10:12:40;;;;;;;22.80;6.65;;;;;;;41.65;22.82;98120.88;4954182;28;20130;-48
2022/06/23 10:15:36;;;;;;;30.27;6.65;;;;;;;40.84;23.34;98113.63;4952799;29;20027;-51
2022/06/23 10:18:11;;;;;;;27.95;6.82;;;;;;;39.58;24.69;98119.94;4954108;28;20027;-49
2022/06/23 10:21:15;;;;;;;29.92;6.75;;;;;;;38.65;25.99;98127.00;4954035;29;20118;-48
2022/06/23 10:24:02;;;;;;;33.97;7.97;;;;;;;39.17;25.99;98118.00;4953984;28;20027;-50
2022/06/23 10:26:45;;;;;;;33.00;7.05;;;;;;;39.05;26.10;98115.75;4953624;29;20055;-49
2022/06/23 10:29:21;;;;;;;28.17;5.57;;;;;;;39.93;25.07;98099.56;4952708;29;20122;-50
2022/06/23 10:32:12;;;;;;;27.27;6.00;;;;;;;41.32;23.86;98103.41;4952585;29;20302;-51
2022/06/23 10:38:34;;;;;;;32.78;6.13;;;;;;;43.76;20.74;98100.59;4954041;29;20050;-51
2022/06/23 10:41:24;;;;;;;37.13;7.20;;;;;;;44.34;20.32;98090.59;4952456;29;20031;-54
2022/06/23 10:43:58;;;;;;;29.25;7.20;;;;;;;44.02;20.38;98082.03;4953814;29;20419;-51
2022/06/23 10:47:03;;;;;;;27.48;6.30;;;;;;;42.41;21.94;98078.72;4953659;28;20019;-53
2022/06/23 10:50:16;;;;;;;33.20;7.28;;;;;;;42.01;22.19;98075.28;4950907;29;20398;-53
2022/06/23 10:52:50;;;;;;;32.40;7.93;;;;;;;41.40;22.75;98077.28;4894529;29;20039;-53
2022/06/23 10:55:47;;;;;;;38.40;8.32;;;;;;;41.69;22.62;98079.50;4878816;29;20045;-51
2022/06/23 10:58:36;;;;;;;32.42;8.65;;;;;;;43.16;21.29;98073.38;4878877;29;20392;-51
2022/06/23 11:01:11;;;;;;;37.90;8.48;;;;;;;42.80;21.20;98071.50;4878855;29;20503;-51
2022/06/23 11:04:01;;;;;;;49.17;7.40;;;;;;;41.83;21.66;98059.91;4878769;29;20043;-50
2022/06/23 11:06:52;;;;;;;34.78;7.25;;;;;;;41.05;22.43;98049.19;4878663;29;21255;-51
2022/06/23 11:09:41;;;;;;;35.25;8.52;;;;;;;40.21;23.19;98045.41;4894474;29;20032;-52
2022/06/23 11:12:44;;;;;;;40.53;8.48;;;;;;;40.30;23.57;98034.66;4878730;29;20096;-51
2022/06/23 11:15:16;;;;;;;46.55;8.15;;;;;;;41.08;22.70;98025.53;4878676;29;20503;-53
2022/06/23 11:18:13;;;;;;;41.10;7.63;;;;;;;41.28;22.38;98026.34;4878620;29;20392;-51
2022/06/23 11:21:10;;;;;;;30.63;6.57;;;;;;;41.05;22.48;98032.69;4881237;29;20404;-50
2022/06/23 11:24:04;;;;;;;27.60;7.50;;;;;;;40.51;22.79;98035.53;4894287;29;20466;-52
2022/06/23 11:27:08;;;;;;;31.73;6.65;;;;;;;40.30;23.57;98026.41;4918836;29;20058;-53
2022/06/23 11:29:53;;;;;;;46.28;7.70;;;;;;;39.59;24.59;98005.41;4953399;28;20485;-53
2022/06/23 11:32:49;;;;;;;38.28;7.63;;;;;;;39.24;24.90;98023.81;4953313;28;20581;-53
2022/06/23 11:35:37;;;;;;;31.67;6.45;;;;;;;39.83;23.72;98014.50;4952038;29;20118;-48
2022/06/23 11:38:30;;;;;;;40.60;7.85;;;;;;;39.28;24.60;98019.03;4953360;28;20027;-50
2022/06/23 11:41:17;;;;;;;31.73;7.25;;;;;;;39.60;24.25;98018.69;4951949;29;20118;-51
2022/06/23 11:44:07;;;;;;;31.75;7.20;;;;;;;40.47;23.43;98013.59;4953299;29;20106;-51
2022/06/23 11:46:36;;;;;;;24.60;6.82;;;;;;;40.29;23.69;98007.56;4953420;28;20097;-50
2022/06/23 11:49:19;;;;;;;29.55;7.15;;;;;;;39.80;23.85;98026.31;4956626;28;20023;-49
2022/06/23 11:51:47;;;;;;;39.17;7.90;;;;;;;39.88;24.45;98036.81;4955387;29;20027;-48
2022/06/23 11:54:34;;;;;;;31.98;6.95;;;;;;;40.27;23.07;98037.47;4956613;29;20031;-50
2022/06/23 11:57:38;;;;;;;31.48;6.32;;;;;;;40.54;22.83;98029.19;4956643;28;20043;-49
2022/06/23 12:00:08;;;;;;;29.00;6.30;;;;;;;40.91;22.32;98022.69;4956623;28;20504;-48
2022/06/23 12:03:00;;;;;;;33.22;6.95;;;;;;;40.68;22.51;98023.44;4956497;28;20017;-50
2022/06/23 12:05:47;;;;;;;27.42;6.47;;;;;;;40.17;22.69;98006.19;4916258;29;20039;-48
2022/06/23 12:08:55;;;;;;;30.48;6.72;;;;;;;40.29;22.99;98002.84;4956451;28;20679;-47
2022/06/23 12:11:21;;;;;;;31.77;6.70;;;;;;;40.76;22.89;97993.88;4956369;28;20066;-50
2022/06/23 12:13:54;;;;;;;31.08;7.68;;;;;;;41.03;22.60;97976.47;4954954;29;20035;-50
2022/06/23 12:16:23;;;;;;;28.30;7.25;;;;;;;41.09;22.42;97970.06;4956283;28;20035;-50
2022/06/23 12:19:04;;;;;;;29.33;6.03;;;;;;;40.27;22.17;97966.75;4954898;29;20390;-50
2022/06/23 12:22:02;;;;;;;34.17;7.22;;;;;;;39.09;24.20;97982.78;4955012;29;20061;-50
2022/06/23 12:24:55;;;;;;;26.52;6.97;;;;;;;38.43;24.16;97982.97;4954807;29;20038;-50
2022/06/23 12:27:32;;;;;;;26.17;6.40;;;;;;;38.11;24.55;97973.03;4955614;28;20505;-50
2022/06/23 12:30:05;;;;;;;41.55;8.38;;;;;;;38.44;24.94;97962.63;4954727;29;20294;-50
2022/06/23 12:32:54;;;;;;;27.83;7.28;;;;;;;39.22;24.37;97955.59;4955996;28;20511;-48
2022/06/23 12:35:35;;;;;;;26.45;5.60;;;;;;;39.39;23.32;97940.09;4948016;29;20062;-48
2022/06/23 12:38:06;;;;;;;30.17;7.30;;;;;;;39.07;23.29;97935.75;4954600;29;20102;-49
2022/06/23 12:40:46;;;;;;;27.75;6.82;;;;;;;38.78;23.92;97929.81;4955692;28;20057;-50
2022/06/23 12:43:25;;;;;;;33.30;6.57;;;;;;;38.48;24.69;97944.94;4955706;28;20090;-50